Time;durP1;ratioP1;P1;durP2;ratioP2;P2;SDS_P1;SDS_P2;PMS_P1;PMS_P2;Temp;Humidity;BMP_temperature;BMP_pressure;BME280_temperature;BME280_humidity;BME280_pressure;Samples;Min_cycle;Max_cycle;Signal;HPM_P1;HPM_P2
2023/08/30 00:02:42;;;;;;;1.57;0.57;;;;;;;;;;6158539;28;20188;-67
2023/08/30 00:05:43;;;;;;;0.57;0.40;;;;;;;;;;6168090;28;20251;-67
2023/08/30 00:08:44;;;;;;;4.50;1.27;;;;;;;;;;6162324;28;20237;-67
2023/08/30 00:11:45;;;;;;;5.13;1.10;;;;;;;;;;6175836;28;20203;-67
2023/08/30 00:14:46;;;;;;;3.60;1.00;;;;;;;;;;6158954;28;20193;-67
2023/08/30 00:17:47;;;;;;;1.20;0.60;;;;;;;;;;6155645;28;20287;-67
2023/08/30 00:20:48;;;;;;;0.50;0.50;;;;;;;;;;6163087;28;20226;-68
2023/08/30 00:23:49;;;;;;;4.03;0.60;;;;;;;;;;6162282;28;20192;-67
2023/08/30 00:26:50;;;;;;;3.50;0.87;;;;;;;;;;6175016;28;20198;-67
2023/08/30 00:29:51;;;;;;;1.53;0.70;;;;;;;;;;6167049;28;20238;-68
2023/08/30 00:32:53;;;;;;;4.20;1.10;;;;;;;;;;6156994;28;20192;-67
2023/08/30 00:35:58;;;;;;;2.07;0.87;;;;;;;;;;6160084;28;20270;-68
2023/08/30 00:38:59;;;;;;;2.13;0.80;;;;;;;;;;6164686;28;20194;-67
2023/08/30 00:42:04;;;;;;;3.60;0.83;;;;;;;;;;6154946;28;20189;-68
2023/08/30 00:45:06;;;;;;;2.47;0.90;;;;;;;;;;6183770;28;20189;-68
2023/08/30 00:48:07;;;;;;;1.70;0.90;;;;;;;;;;6163529;28;20230;-67
2023/08/30 00:51:08;;;;;;;1.87;0.70;;;;;;;;;;6175721;28;20197;-67
2023/08/30 00:54:09;;;;;;;1.50;0.50;;;;;;;;;;6170271;28;20224;-67
2023/08/30 00:57:11;;;;;;;3.30;0.80;;;;;;;;;;6157883;28;20208;-67
2023/08/30 01:00:12;;;;;;;2.27;0.80;;;;;;;;;;6161622;28;20354;-67
2023/08/30 01:03:13;;;;;;;1.77;0.70;;;;;;;;;;6173786;28;20188;-67
2023/08/30 01:06:14;;;;;;;2.27;0.70;;;;;;;;;;6190698;28;20193;-67
2023/08/30 01:09:16;;;;;;;1.63;0.70;;;;;;;;;;6162845;28;20267;-67
2023/08/30 01:12:21;;;;;;;2.90;0.60;;;;;;;;;;6170429;28;20244;-67
2023/08/30 01:15:23;;;;;;;3.17;0.80;;;;;;;;;;6169371;28;20197;-67
2023/08/30 01:18:27;;;;;;;4.43;0.90;;;;;;;;;;6168042;28;20275;-67
2023/08/30 01:21:53;;;;;;;1.77;0.90;;;;;;;;;;6177728;28;20325;-67
2023/08/30 01:24:54;;;;;;;3.77;1.00;;;;;;;;;;6170139;28;20182;-68
2023/08/30 01:27:56;;;;;;;5.93;1.00;;;;;;;;;;6167461;28;20201;-67
2023/08/30 01:30:58;;;;;;;2.27;1.00;;;;;;;;;;6158179;28;20193;-68
2023/08/30 01:34:00;;;;;;;3.27;0.90;;;;;;;;;;6176578;28;20202;-67
2023/08/30 01:37:02;;;;;;;4.23;1.20;;;;;;;;;;6185898;28;20208;-68
2023/08/30 01:40:07;;;;;;;1.43;0.73;;;;;;;;;;6178032;28;20212;-67
2023/08/30 01:43:08;;;;;;;4.73;1.10;;;;;;;;;;6154355;28;20213;-67
2023/08/30 01:46:10;;;;;;;4.23;1.10;;;;;;;;;;6176283;28;20197;-67
2023/08/30 01:49:11;;;;;;;2.13;0.80;;;;;;;;;;6162060;28;20209;-67
2023/08/30 01:52:13;;;;;;;3.00;0.90;;;;;;;;;;6160056;28;20628;-67
2023/08/30 01:55:15;;;;;;;2.50;0.97;;;;;;;;;;6161155;28;20193;-68
2023/08/30 01:58:16;;;;;;;3.27;1.37;;;;;;;;;;6162092;28;20192;-68
2023/08/30 02:01:17;;;;;;;2.90;1.00;;;;;;;;;;6171750;28;20213;-67
2023/08/30 02:04:18;;;;;;;3.03;0.83;;;;;;;;;;6161802;28;20194;-68
2023/08/30 02:07:39;;;;;;;4.67;1.33;;;;;;;;;;6154781;28;20256;-67
2023/08/30 02:10:41;;;;;;;3.13;1.13;;;;;;;;;;6168332;28;20202;-68
2023/08/30 02:13:43;;;;;;;2.53;0.90;;;;;;;;;;6180740;28;20193;-67
2023/08/30 02:16:46;;;;;;;3.27;0.90;;;;;;;;;;6173153;28;20249;-68
2023/08/30 02:19:48;;;;;;;1.83;0.87;;;;;;;;;;6180801;28;20216;-68
2023/08/30 02:22:49;;;;;;;1.97;0.80;;;;;;;;;;6180843;28;20189;-68
2023/08/30 02:25:50;;;;;;;1.07;0.60;;;;;;;;;;6161367;28;20189;-67
2023/08/30 02:28:51;;;;;;;4.97;0.80;;;;;;;;;;6161422;28;20198;-67
2023/08/30 02:31:52;;;;;;;1.47;0.90;;;;;;;;;;6173672;28;20201;-68
2023/08/30 02:34:53;;;;;;;1.50;0.80;;;;;;;;;;6156218;28;20228;-68
2023/08/30 02:37:54;;;;;;;2.97;0.70;;;;;;;;;;6189030;28;20191;-68
2023/08/30 02:40:55;;;;;;;4.67;0.73;;;;;;;;;;6168656;28;20217;-68
2023/08/30 02:43:56;;;;;;;1.43;0.80;;;;;;;;;;6169776;28;20197;-67
2023/08/30 02:46:57;;;;;;;1.70;0.93;;;;;;;;;;6149755;28;20212;-68
2023/08/30 02:49:58;;;;;;;2.17;0.87;;;;;;;;;;6175029;28;20275;-68
2023/08/30 02:52:59;;;;;;;1.73;0.97;;;;;;;;;;6160445;28;20191;-68
2023/08/30 02:56:00;;;;;;;3.57;0.90;;;;;;;;;;6160751;28;20223;-67
2023/08/30 02:59:01;;;;;;;3.03;0.80;;;;;;;;;;6162752;28;20224;-68
2023/08/30 03:02:02;;;;;;;4.13;1.20;;;;;;;;;;6169900;28;20231;-67
2023/08/30 03:05:04;;;;;;;2.63;1.10;;;;;;;;;;6191897;28;20215;-67
2023/08/30 03:08:05;;;;;;;2.47;1.30;;;;;;;;;;6160085;28;20243;-68
2023/08/30 03:11:13;;;;;;;2.47;1.30;;;;;;;;;;6155524;28;20197;-68
2023/08/30 03:14:16;;;;;;;1.77;1.37;;;;;;;;;;6175761;28;20204;-67
2023/08/30 03:17:17;;;;;;;6.10;1.67;;;;;;;;;;6164723;28;20204;-67
2023/08/30 03:20:18;;;;;;;6.50;1.60;;;;;;;;;;6160440;28;20212;-67
2023/08/30 03:23:19;;;;;;;2.70;1.20;;;;;;;;;;6170942;28;20188;-67
2023/08/30 03:26:20;;;;;;;1.03;0.97;;;;;;;;;;6168889;28;20256;-66
2023/08/30 03:29:21;;;;;;;3.83;1.20;;;;;;;;;;6160549;28;20231;-66
2023/08/30 03:32:23;;;;;;;4.40;1.20;;;;;;;;;;6160048;28;20197;-67
2023/08/30 03:35:24;;;;;;;3.10;1.60;;;;;;;;;;6161681;28;20193;-66
2023/08/30 03:38:25;;;;;;;2.63;1.40;;;;;;;;;;6153169;28;20312;-67
2023/08/30 03:41:26;;;;;;;1.97;1.50;;;;;;;;;;6170115;28;20223;-67
2023/08/30 03:44:27;;;;;;;4.63;1.43;;;;;;;;;;6156871;28;20203;-67
2023/08/30 03:47:28;;;;;;;4.80;1.67;;;;;;;;;;6152948;28;20201;-66
2023/08/30 03:50:29;;;;;;;5.83;1.80;;;;;;;;;;6151371;28;20283;-66
2023/08/30 03:53:30;;;;;;;3.20;1.33;;;;;;;;;;6172514;28;20204;-66
2023/08/30 03:56:31;;;;;;;5.63;1.63;;;;;;;;;;6158158;28;20219;-67
2023/08/30 03:59:33;;;;;;;4.27;1.53;;;;;;;;;;6159410;28;20223;-67
2023/08/30 04:02:34;;;;;;;1.70;1.60;;;;;;;;;;6163887;28;20195;-67
2023/08/30 04:05:35;;;;;;;3.37;1.60;;;;;;;;;;6167835;28;20193;-67
2023/08/30 04:08:36;;;;;;;4.23;1.50;;;;;;;;;;6164516;28;20282;-67
2023/08/30 04:11:37;;;;;;;6.17;2.13;;;;;;;;;;6158900;28;20191;-67
2023/08/30 04:14:38;;;;;;;3.27;1.70;;;;;;;;;;6170701;28;20187;-67
2023/08/30 04:17:39;;;;;;;2.90;1.53;;;;;;;;;;6161611;28;20196;-67
2023/08/30 04:20:44;;;;;;;5.43;1.57;;;;;;;;;;6163604;28;20685;-67
2023/08/30 04:23:45;;;;;;;1.63;1.53;;;;;;;;;;6175046;28;20188;-66
2023/08/30 04:26:49;;;;;;;4.23;1.90;;;;;;;;;;6165147;28;20193;-67
2023/08/30 04:29:52;;;;;;;5.90;2.00;;;;;;;;;;6174436;28;20205;-66
2023/08/30 04:32:53;;;;;;;4.63;2.03;;;;;;;;;;6173949;28;20196;-66
2023/08/30 04:35:55;;;;;;;3.17;1.60;;;;;;;;;;6159421;28;20250;-66
2023/08/30 04:38:56;;;;;;;2.10;1.63;;;;;;;;;;6169768;28;20231;-66
2023/08/30 04:41:57;;;;;;;3.83;1.70;;;;;;;;;;6159801;28;20217;-66
2023/08/30 04:45:00;;;;;;;2.93;1.63;;;;;;;;;;6150573;28;20200;-65
2023/08/30 04:48:01;;;;;;;3.30;2.00;;;;;;;;;;6172345;28;20200;-66
2023/08/30 04:51:03;;;;;;;3.57;1.93;;;;;;;;;;6166223;28;20207;-64
2023/08/30 04:54:04;;;;;;;4.10;1.70;;;;;;;;;;6173177;28;20200;-63
2023/08/30 04:57:05;;;;;;;4.13;1.63;;;;;;;;;;6158818;28;20205;-65
2023/08/30 05:00:07;;;;;;;3.00;1.70;;;;;;;;;;6162160;28;20221;-64
2023/08/30 05:03:08;;;;;;;5.33;2.10;;;;;;;;;;6161757;28;20189;-65
2023/08/30 05:06:09;;;;;;;3.77;2.17;;;;;;;;;;6173198;28;20188;-64
2023/08/30 05:09:10;;;;;;;4.67;2.20;;;;;;;;;;6173000;28;20279;-65
2023/08/30 05:12:11;;;;;;;4.57;2.10;;;;;;;;;;6171594;28;20197;-65
2023/08/30 05:15:12;;;;;;;5.40;1.90;;;;;;;;;;6151540;28;20287;-70
2023/08/30 05:18:13;;;;;;;3.37;1.97;;;;;;;;;;6174972;28;20193;-66
2023/08/30 05:21:14;;;;;;;3.23;2.10;;;;;;;;;;6163033;28;20214;-67
2023/08/30 05:24:15;;;;;;;3.97;2.10;;;;;;;;;;6162166;28;20193;-65
2023/08/30 05:27:18;;;;;;;2.47;1.40;;;;;;;;;;6161502;28;20251;-65
2023/08/30 05:30:19;;;;;;;3.00;1.87;;;;;;;;;;6189669;28;20199;-66
2023/08/30 05:33:20;;;;;;;4.40;2.10;;;;;;;;;;6166425;28;20193;-66
2023/08/30 05:36:21;;;;;;;4.37;2.23;;;;;;;;;;6161537;28;20200;-66
2023/08/30 05:39:22;;;;;;;3.63;1.80;;;;;;;;;;6176862;28;20211;-66
2023/08/30 05:42:23;;;;;;;2.33;2.00;;;;;;;;;;6161726;28;20238;-64
2023/08/30 05:45:24;;;;;;;5.20;2.10;;;;;;;;;;6169915;28;20197;-67
2023/08/30 05:48:25;;;;;;;3.83;1.93;;;;;;;;;;6160854;28;20200;-67
2023/08/30 05:51:26;;;;;;;2.37;1.60;;;;;;;;;;6158116;28;21523;-66
2023/08/30 05:54:29;;;;;;;3.87;1.90;;;;;;;;;;6160583;28;20275;-68
2023/08/30 05:57:33;;;;;;;3.13;1.60;;;;;;;;;;6171510;28;20221;-66
2023/08/30 06:00:34;;;;;;;2.07;1.40;;;;;;;;;;6159769;28;20261;-65
2023/08/30 06:03:35;;;;;;;3.30;1.60;;;;;;;;;;6175507;28;20212;-66
2023/08/30 06:06:36;;;;;;;4.03;1.90;;;;;;;;;;6176854;28;20199;-66
2023/08/30 06:09:37;;;;;;;2.53;1.63;;;;;;;;;;6161450;28;20200;-66
2023/08/30 06:12:38;;;;;;;2.10;1.67;;;;;;;;;;6160612;28;20312;-66
2023/08/30 06:15:39;;;;;;;4.17;1.60;;;;;;;;;;6179651;28;20272;-66
2023/08/30 06:18:41;;;;;;;4.83;2.00;;;;;;;;;;6161080;28;20208;-66
2023/08/30 06:21:42;;;;;;;4.83;1.40;;;;;;;;;;6160904;28;20231;-66
2023/08/30 06:24:43;;;;;;;2.57;1.40;;;;;;;;;;6160116;28;20203;-66
2023/08/30 06:27:56;;;;;;;2.57;1.70;;;;;;;;;;6165547;28;20192;-66
2023/08/30 06:30:57;;;;;;;2.60;1.60;;;;;;;;;;6176689;28;20209;-66
2023/08/30 06:33:58;;;;;;;2.23;1.63;;;;;;;;;;6173740;28;20192;-66
2023/08/30 06:36:59;;;;;;;2.97;1.50;;;;;;;;;;6177576;28;20192;-66
2023/08/30 06:40:01;;;;;;;1.20;1.10;;;;;;;;;;6161126;28;20220;-65
2023/08/30 06:43:02;;;;;;;3.03;1.40;;;;;;;;;;6160238;28;20276;-66
2023/08/30 06:46:03;;;;;;;3.53;1.40;;;;;;;;;;6175369;28;20208;-66
2023/08/30 06:49:04;;;;;;;1.90;1.50;;;;;;;;;;6160563;28;20204;-66
2023/08/30 06:52:05;;;;;;;3.70;1.50;;;;;;;;;;6176322;28;20198;-65
2023/08/30 06:55:07;;;;;;;1.43;1.33;;;;;;;;;;6161239;28;20207;-66
2023/08/30 06:58:08;;;;;;;2.57;1.80;;;;;;;;;;6159990;28;20196;-66
2023/08/30 07:01:09;;;;;;;1.87;1.33;;;;;;;;;;6175456;28;20208;-66
2023/08/30 07:04:10;;;;;;;4.70;1.63;;;;;;;;;;6176072;28;20185;-66
2023/08/30 07:07:13;;;;;;;1.63;1.50;;;;;;;;;;6160995;28;20327;-66
2023/08/30 07:10:14;;;;;;;3.33;1.80;;;;;;;;;;6168510;28;20275;-66
2023/08/30 07:13:15;;;;;;;2.47;2.13;;;;;;;;;;6175206;28;20197;-66
2023/08/30 07:16:16;;;;;;;2.53;2.10;;;;;;;;;;6157716;28;20196;-66
2023/08/30 07:19:17;;;;;;;3.53;2.03;;;;;;;;;;6159199;28;20255;-66
2023/08/30 07:22:18;;;;;;;2.80;1.80;;;;;;;;;;6158053;28;20192;-66
2023/08/30 07:25:19;;;;;;;1.90;1.70;;;;;;;;;;6154840;28;20200;-66
2023/08/30 07:28:20;;;;;;;2.37;1.50;;;;;;;;;;6170941;28;20197;-66
2023/08/30 07:31:21;;;;;;;3.00;1.60;;;;;;;;;;6167378;28;20188;-66
2023/08/30 07:34:22;;;;;;;2.00;1.80;;;;;;;;;;6166578;28;20222;-66
2023/08/30 07:37:23;;;;;;;4.63;1.60;;;;;;;;;;6161138;28;20197;-66
2023/08/30 07:40:26;;;;;;;1.87;1.20;;;;;;;;;;6174034;28;20213;-66
2023/08/30 07:43:27;;;;;;;3.30;1.40;;;;;;;;;;6161150;28;20196;-66
2023/08/30 07:46:28;;;;;;;1.90;1.13;;;;;;;;;;6159349;28;20207;-66
2023/08/30 07:49:29;;;;;;;2.87;1.07;;;;;;;;;;6158839;28;20265;-65
2023/08/30 07:52:30;;;;;;;2.60;1.27;;;;;;;;;;6160017;28;20206;-66
2023/08/30 07:55:31;;;;;;;2.43;1.30;;;;;;;;;;6175617;28;20200;-66
2023/08/30 07:58:32;;;;;;;1.73;1.00;;;;;;;;;;6160967;28;20222;-66
2023/08/30 08:01:33;;;;;;;1.07;0.83;;;;;;;;;;6159005;28;20220;-66
2023/08/30 08:04:35;;;;;;;0.97;0.70;;;;;;;;;;6158566;28;20193;-66
2023/08/30 08:07:40;;;;;;;1.17;0.90;;;;;;;;;;6162199;28;20278;-66
2023/08/30 08:10:42;;;;;;;2.13;0.90;;;;;;;;;;6182231;28;20197;-67
2023/08/30 08:13:43;;;;;;;1.87;1.03;;;;;;;;;;6185815;28;20228;-65
2023/08/30 08:16:44;;;;;;;1.37;1.00;;;;;;;;;;6150934;28;20283;-64
2023/08/30 08:19:45;;;;;;;1.93;1.03;;;;;;;;;;6159124;28;20315;-64
2023/08/30 08:22:46;;;;;;;2.17;1.07;;;;;;;;;;6153795;28;20195;-65
2023/08/30 08:25:47;;;;;;;1.27;1.17;;;;;;;;;;6154427;28;20255;-66
2023/08/30 08:28:48;;;;;;;2.50;1.67;;;;;;;;;;6174779;28;20283;-63
2023/08/30 08:31:49;;;;;;;3.43;1.77;;;;;;;;;;6159040;28;20196;-64
2023/08/30 08:34:50;;;;;;;1.40;1.13;;;;;;;;;;6154135;28;20193;-65
2023/08/30 08:37:52;;;;;;;3.23;1.23;;;;;;;;;;6153282;28;20287;-66
2023/08/30 08:41:01;;;;;;;2.80;1.33;;;;;;;;;;6169271;28;20235;-67
2023/08/30 08:44:04;;;;;;;3.80;1.80;;;;;;;;;;6171418;28;20195;-67
2023/08/30 08:47:05;;;;;;;4.70;1.73;;;;;;;;;;6172979;28;20205;-67
2023/08/30 08:50:06;;;;;;;4.10;2.13;;;;;;;;;;6174729;28;20254;-67
2023/08/30 08:53:08;;;;;;;2.80;2.10;;;;;;;;;;6167055;28;20196;-67
2023/08/30 08:56:09;;;;;;;2.87;1.87;;;;;;;;;;6164245;28;20200;-67
2023/08/30 08:59:11;;;;;;;2.70;1.70;;;;;;;;;;6165646;28;20200;-67
2023/08/30 09:02:15;;;;;;;2.27;1.70;;;;;;;;;;6166163;28;20197;-66
2023/08/30 09:05:16;;;;;;;1.83;1.13;;;;;;;;;;6178539;28;20192;-67
2023/08/30 09:08:17;;;;;;;2.37;1.23;;;;;;;;;;6163663;28;20262;-67
2023/08/30 09:11:18;;;;;;;3.07;1.40;;;;;;;;;;6163137;28;20196;-67
2023/08/30 09:14:20;;;;;;;1.43;1.00;;;;;;;;;;6156918;28;20194;-67
2023/08/30 09:17:21;;;;;;;2.23;1.20;;;;;;;;;;6164630;28;20203;-67
2023/08/30 09:20:22;;;;;;;1.07;0.80;;;;;;;;;;6165960;28;20223;-68
2023/08/30 09:23:25;;;;;;;1.27;0.90;;;;;;;;;;6178311;28;20242;-68
2023/08/30 09:26:28;;;;;;;1.17;0.70;;;;;;;;;;6163225;28;20227;-69
2023/08/30 09:29:29;;;;;;;1.20;0.80;;;;;;;;;;6166318;28;20192;-69
2023/08/30 09:32:30;;;;;;;3.43;1.33;;;;;;;;;;6178140;28;20192;-66
2023/08/30 09:35:32;;;;;;;2.03;1.00;;;;;;;;;;6171880;28;20212;-67
2023/08/30 09:38:33;;;;;;;1.20;0.70;;;;;;;;;;6172626;28;20283;-67
2023/08/30 09:41:34;;;;;;;1.37;1.00;;;;;;;;;;6165282;28;20216;-66
2023/08/30 09:44:35;;;;;;;3.90;0.90;;;;;;;;;;6161986;28;20196;-68
2023/08/30 09:47:36;;;;;;;4.60;0.80;;;;;;;;;;6163180;28;20249;-67
2023/08/30 09:50:39;;;;;;;1.50;0.80;;;;;;;;;;6176902;28;20200;-68
2023/08/30 09:53:45;;;;;;;2.07;0.83;;;;;;;;;;6193921;28;20197;-67
2023/08/30 09:56:47;;;;;;;0.63;0.60;;;;;;;;;;6177891;28;20269;-67
2023/08/30 09:59:49;;;;;;;0.80;0.77;;;;;;;;;;6178213;28;20216;-68
2023/08/30 10:02:50;;;;;;;2.00;0.90;;;;;;;;;;6165998;28;20196;-68
2023/08/30 10:05:52;;;;;;;0.67;0.50;;;;;;;;;;6162160;28;20286;-68
2023/08/30 10:08:54;;;;;;;3.63;0.80;;;;;;;;;;6162596;28;20233;-69
2023/08/30 10:11:55;;;;;;;2.20;0.93;;;;;;;;;;6173273;28;20205;-69
2023/08/30 10:14:56;;;;;;;1.37;0.97;;;;;;;;;;6163489;28;20287;-69
2023/08/30 10:17:58;;;;;;;2.30;0.93;;;;;;;;;;6161681;28;20196;-69
2023/08/30 10:21:00;;;;;;;1.37;0.73;;;;;;;;;;6174499;28;20212;-69
2023/08/30 10:24:03;;;;;;;0.73;0.60;;;;;;;;;;6161688;28;20188;-69
2023/08/30 10:27:05;;;;;;;1.53;0.97;;;;;;;;;;6162929;28;20197;-66
2023/08/30 10:30:09;;;;;;;1.53;0.53;;;;;;;;;;6187746;28;20192;-67
2023/08/30 10:33:14;;;;;;;2.60;0.80;;;;;;;;;;6174610;28;20219;-66
2023/08/30 10:36:20;;;;;;;1.43;0.90;;;;;;;;;;6179260;28;20193;-67
2023/08/30 10:39:27;;;;;;;0.70;0.70;;;;;;;;;;6167123;28;20193;-67
2023/08/30 10:42:28;;;;;;;0.93;0.80;;;;;;;;;;6169899;28;20196;-69
2023/08/30 10:45:30;;;;;;;0.80;0.80;;;;;;;;;;6166582;28;20215;-67
2023/08/30 10:48:35;;;;;;;1.93;0.50;;;;;;;;;;6160515;28;20188;-68
2023/08/30 10:51:37;;;;;;;1.07;0.60;;;;;;;;;;6160430;28;20255;-67
2023/08/30 10:54:38;;;;;;;0.40;0.40;;;;;;;;;;6167640;28;20268;-68
2023/08/30 10:57:43;;;;;;;0.50;0.50;;;;;;;;;;6166232;28;20192;-67
2023/08/30 11:00:44;;;;;;;0.73;0.40;;;;;;;;;;6174907;28;20221;-71
2023/08/30 11:03:45;;;;;;;1.47;0.77;;;;;;;;;;6185422;28;20188;-68
2023/08/30 11:06:47;;;;;;;1.53;0.50;;;;;;;;;;6176014;28;20231;-69
2023/08/30 11:09:49;;;;;;;1.13;0.73;;;;;;;;;;6176345;28;20293;-68
2023/08/30 11:12:50;;;;;;;2.57;0.57;;;;;;;;;;6165192;28;20265;-68
2023/08/30 11:15:51;;;;;;;1.10;0.50;;;;;;;;;;6158239;28;20203;-68
2023/08/30 11:18:52;;;;;;;0.60;0.60;;;;;;;;;;6160166;28;20226;-64
2023/08/30 11:21:53;;;;;;;3.60;0.70;;;;;;;;;;6160229;28;20289;-66
2023/08/30 11:24:54;;;;;;;1.20;0.43;;;;;;;;;;6158943;28;20199;-64
2023/08/30 11:28:05;;;;;;;0.50;0.40;;;;;;;;;;6161546;28;20203;-63
2023/08/30 11:31:06;;;;;;;2.50;0.80;;;;;;;;;;6166002;28;20208;-63
2023/08/30 11:34:07;;;;;;;1.13;0.70;;;;;;;;;;6158660;28;20203;-63
2023/08/30 11:37:08;;;;;;;2.47;0.50;;;;;;;;;;6176940;28;20195;-63
2023/08/30 11:40:11;;;;;;;0.60;0.60;;;;;;;;;;6167073;28;20279;-64
2023/08/30 11:43:13;;;;;;;2.50;0.57;;;;;;;;;;6179112;28;20243;-63
2023/08/30 11:46:14;;;;;;;0.50;0.50;;;;;;;;;;6159007;28;20200;-63
2023/08/30 11:49:15;;;;;;;4.90;0.70;;;;;;;;;;6174850;28;20184;-65
2023/08/30 11:52:18;;;;;;;2.00;0.53;;;;;;;;;;6155734;28;20246;-65
2023/08/30 11:55:19;;;;;;;4.17;0.73;;;;;;;;;;6178862;28;20248;-65
2023/08/30 11:58:20;;;;;;;1.20;0.53;;;;;;;;;;6175318;28;20203;-65
2023/08/30 12:01:21;;;;;;;1.27;0.67;;;;;;;;;;6173231;28;20212;-65
2023/08/30 12:04:22;;;;;;;1.23;0.70;;;;;;;;;;6155712;28;20246;-65
2023/08/30 12:07:24;;;;;;;1.07;0.57;;;;;;;;;;6167022;28;20342;-65
2023/08/30 12:10:25;;;;;;;0.93;0.60;;;;;;;;;;6158213;28;20263;-65
2023/08/30 12:13:27;;;;;;;1.67;0.53;;;;;;;;;;6167916;28;20195;-63
2023/08/30 12:16:28;;;;;;;1.17;0.60;;;;;;;;;;6161875;28;20197;-64
2023/08/30 12:19:29;;;;;;;0.40;0.40;;;;;;;;;;6174089;28;20204;-64
2023/08/30 12:22:38;;;;;;;1.07;0.60;;;;;;;;;;6162424;28;20189;-64
2023/08/30 12:25:39;;;;;;;0.97;0.67;;;;;;;;;;6172785;28;20192;-64
2023/08/30 12:28:40;;;;;;;1.07;0.47;;;;;;;;;;6156306;28;20201;-64
2023/08/30 12:31:42;;;;;;;1.47;0.60;;;;;;;;;;6163909;28;20195;-64
2023/08/30 12:34:43;;;;;;;1.10;0.50;;;;;;;;;;6165815;28;20227;-63
2023/08/30 12:37:44;;;;;;;0.83;0.50;;;;;;;;;;6167914;28;20370;-64
2023/08/30 12:40:45;;;;;;;0.90;0.60;;;;;;;;;;6167364;28;20217;-64
2023/08/30 12:43:46;;;;;;;3.10;0.70;;;;;;;;;;6162769;28;20185;-64
2023/08/30 12:46:47;;;;;;;1.87;0.70;;;;;;;;;;6168433;28;20192;-64
2023/08/30 12:49:48;;;;;;;0.90;0.60;;;15.80;99.90;;;;;;6165156;28;20195;-63
2023/08/30 12:52:49;;;;;;;2.53;0.70;;;20.90;87.30;;;;;;6165082;28;20212;-64
2023/08/30 12:55:49;;;;;;;3.07;0.70;;;20.60;90.00;;;;;;6162229;28;20200;-64
2023/08/30 12:58:51;;;;;;;1.33;0.83;;;;;;;;;;6169378;28;20247;-64
2023/08/30 13:01:52;;;;;;;0.77;0.67;;;;;;;;;;6161933;28;20220;-64
2023/08/30 13:04:53;;;;;;;1.83;0.73;;;;;;;;;;6163135;28;20188;-64
2023/08/30 13:07:54;;;;;;;1.90;0.90;;;;;;;;;;6165941;28;20232;-64
2023/08/30 13:10:55;;;;;;;2.63;0.90;;;;;;;;;;6177784;28;20192;-64
2023/08/30 13:13:57;;;;;;;2.50;0.80;;;;;;;;;;6162120;28;20304;-65
2023/08/30 13:16:58;;;;;;;3.40;1.10;;;;;;;;;;6175977;28;20196;-64
2023/08/30 13:20:01;;;;;;;2.00;1.00;;;;;;;;;;6162090;28;20223;-64
2023/08/30 13:23:03;;;;;;;1.60;0.93;;;;;;;;;;6171555;28;20282;-64
2023/08/30 13:26:04;;;;;;;0.90;0.60;;;;;;;;;;6166028;28;20200;-64
2023/08/30 13:29:05;;;;;;;0.63;0.47;;;;;;;;;;6161889;28;20204;-65
2023/08/30 13:32:06;;;;;;;2.40;0.80;;;;;;;;;;6160779;28;20262;-64
2023/08/30 13:35:07;;;;;;;1.63;0.53;;;;;;;;;;6161192;28;20200;-67
2023/08/30 13:38:09;;;;;;;2.97;0.80;;;;;;;;;;6162333;28;20200;-63
2023/08/30 13:41:10;;;;;;;1.47;0.90;;;;;;;;;;6154972;28;20236;-65
2023/08/30 13:44:11;;;;;;;4.40;0.80;;;;;;;;;;6170684;28;20184;-65
2023/08/30 13:47:12;;;;;;;4.53;1.23;;;;;;;;;;6161924;28;20186;-65
2023/08/30 13:50:13;;;;;;;7.27;2.17;;;;;;;;;;6168538;28;20316;-65
2023/08/30 13:53:15;;;;;;;6.57;1.90;;;;;;;;;;6174592;28;20224;-67
2023/08/30 13:56:16;;;;;;;2.53;1.10;;;;;;;;;;6161596;28;20195;-66
2023/08/30 13:59:17;;;;;;;2.10;0.90;;;;;;;;;;6160462;28;20252;-67
2023/08/30 14:02:19;;;;;;;1.70;1.00;;;;;;;;;;6161936;28;20240;-65
2023/08/30 14:05:20;;;;;;;1.83;1.30;;;;;;;;;;6162467;28;20279;-65
2023/08/30 14:08:21;;;;;;;4.47;1.17;;;;;;;;;;6166799;28;20232;-65
2023/08/30 14:11:22;;;;;;;6.87;1.50;;;;;;;;;;6169325;28;20335;-65
2023/08/30 14:14:23;;;;;;;3.97;1.47;;;;;;;;;;6160352;28;20200;-65
2023/08/30 14:17:24;;;;;;;4.33;1.23;;;;;;;;;;6164752;28;20211;-65
2023/08/30 14:20:26;;;;;;;4.83;1.37;;;;;;;;;;6170891;28;20225;-65
2023/08/30 14:23:27;;;;;;;1.97;1.10;;;;;;;;;;6169038;28;20224;-65
2023/08/30 14:26:28;;;;;;;3.37;1.00;;;;;;;;;;6171999;28;20197;-61
2023/08/30 14:29:30;;;;;;;3.77;1.13;;;;;;;;;;6162243;28;20193;-62
2023/08/30 14:32:31;;;;;;;2.50;1.20;;;;;;;;;;6160984;28;20199;-62
2023/08/30 14:35:33;;;;;;;2.47;1.10;;;;;;;;;;6177475;28;20196;-62
2023/08/30 14:38:36;;;;;;;2.87;1.03;;;;;;;;;;6161092;28;20192;-63
2023/08/30 14:41:38;;;;;;;2.33;1.10;;;;;;;;;;6160814;28;20220;-61
2023/08/30 14:44:39;;;;;;;2.67;1.43;;;;;;;;;;6160312;28;20199;-63
2023/08/30 14:47:40;;;;;;;1.10;0.87;;;;;;;;;;6159884;28;20196;-63
2023/08/30 14:50:41;;;;;;;2.40;1.47;;;;;;;;;;6161705;28;20188;-63
2023/08/30 14:53:42;;;;;;;1.30;1.20;;;;;;;;;;6164198;28;20213;-61
2023/08/30 14:56:44;;;;;;;2.37;1.30;;;;;;;;;;6157333;28;20248;-62
2023/08/30 14:59:45;;;;;;;2.30;1.23;;;;;;;;;;6163035;28;20226;-63
2023/08/30 15:02:47;;;;;;;4.20;1.33;;;;;;;;;;6180193;28;20185;-62
2023/08/30 15:05:56;;;;;;;2.97;1.23;;;;;;;;;;6160092;28;20303;-63
2023/08/30 15:08:58;;;;;;;3.93;1.67;;;;;;;;;;6168895;28;20229;-63
2023/08/30 15:11:59;;;;;;;5.03;1.70;;;;;;;;;;6155622;28;20188;-63
2023/08/30 15:15:00;;;;;;;4.10;1.70;;;;;;;;;;6160774;28;20197;-63
2023/08/30 15:18:02;;;;;;;2.87;1.70;;;;;;;;;;6159166;28;20227;-63
2023/08/30 15:21:03;;;;;;;2.33;1.60;;;;;;;;;;6149256;28;20212;-64
2023/08/30 15:24:05;;;;;;;5.03;1.90;;;;;;;;;;6168727;28;20185;-62
2023/08/30 15:27:06;;;;;;;2.93;1.77;;;;;;;;;;6156300;28;20200;-64
2023/08/30 15:30:07;;;;;;;3.33;1.53;;;;;;;;;;6160354;28;20192;-62
2023/08/30 15:33:08;;;;;;;3.23;1.50;;;;;;;;;;6166724;28;20203;-63
2023/08/30 15:36:10;;;;;;;3.60;1.67;;;;;;;;;;6160833;28;20201;-61
2023/08/30 15:39:14;;;;;;;2.77;1.70;;;;;;;;;;6166940;28;20255;-62
2023/08/30 15:42:15;;;;;;;3.83;1.80;;;;;;;;;;6167167;28;20239;-65
2023/08/30 15:45:17;;;;;;;4.50;1.60;;;;;;;;;;6152456;28;20193;-64
2023/08/30 15:48:18;;;;;;;3.37;1.70;;;;;;;;;;6170878;28;20196;-63
2023/08/30 15:51:20;;;;;;;5.70;1.80;;;;;;;;;;6159122;28;20250;-64
2023/08/30 15:54:21;;;;;;;2.40;1.90;;;;;;;;;;6150296;28;20220;-63
2023/08/30 15:57:23;;;;;;;2.30;2.10;;;;;;;;;;6175394;28;20211;-64
2023/08/30 16:00:24;;;;;;;2.30;1.80;;;;;;;;;;6157989;28;20208;-62
2023/08/30 16:03:26;;;;;;;3.00;2.03;;;;;;;;;;6159550;28;20247;-62
2023/08/30 16:06:27;;;;;;;2.70;2.10;;;;;;;;;;6154437;28;20195;-62
2023/08/30 16:09:29;;;;;;;2.33;1.87;;;;;;;;;;6172526;28;20280;-64
2023/08/30 16:12:30;;;;;;;5.47;2.00;;;;;;;;;;6173901;28;20300;-64
2023/08/30 16:15:37;;;;;;;2.87;2.20;;;;;;;;;;6173716;28;20225;-64
2023/08/30 16:18:38;;;;;;;4.73;2.00;;;;;;;;;;6160918;28;20205;-64
2023/08/30 16:21:40;;;;;;;3.03;2.10;;;;;;;;;;6172705;28;20216;-65
2023/08/30 16:24:41;;;;;;;2.20;2.00;;;;;;;;;;6174150;28;20199;-65
2023/08/30 16:27:42;;;;;;;2.50;2.20;;;;;;;;;;6158769;28;20223;-65
2023/08/30 16:30:44;;;;;;;3.77;2.17;;;;;;;;;;6175648;28;20189;-65
2023/08/30 16:33:45;;;;;;;3.40;2.20;;;;;;;;;;6174061;28;20203;-65
2023/08/30 16:36:48;;;;;;;3.47;2.13;;;;;;;;;;6157108;28;20198;-69
2023/08/30 16:39:49;;;;;;;2.97;2.00;;;;;;;;;;6174629;28;20213;-65
2023/08/30 16:42:51;;;;;;;2.17;2.00;;;;;;;;;;6157874;28;20189;-65
2023/08/30 16:45:52;;;;;;;3.20;1.83;;;;;;;;;;6161912;28;20275;-65
2023/08/30 16:48:54;;;;;;;1.90;1.50;;;;;;;;;;6158967;28;20192;-65
2023/08/30 16:51:57;;;;;;;2.27;2.07;;;;;;;;;;6189809;28;20204;-66
2023/08/30 16:54:58;;;;;;;4.30;2.27;;;;;;;;;;6168150;28;20204;-65
2023/08/30 16:57:59;;;;;;;2.70;2.50;;;;;;;;;;6179613;28;20204;-65
2023/08/30 17:01:01;;;;;;;3.83;2.73;;;;;;;;;;6184685;28;20235;-64
2023/08/30 17:04:02;;;;;;;3.00;2.77;;;;;;;;;;6151981;28;20193;-64
2023/08/30 17:07:04;;;;;;;3.93;2.57;;;;;;;;;;6173168;28;20314;-64
2023/08/30 17:10:06;;;;;;;4.10;2.40;;;;;;;;;;6158035;28;20189;-65
2023/08/30 17:13:07;;;;;;;2.93;2.03;;;;;;;;;;6162028;28;20200;-65
2023/08/30 17:16:10;;;;;;;3.37;2.10;;;;;;;;;;6159768;28;20221;-64
2023/08/30 17:19:13;;;;;;;5.70;2.40;;;;;;;;;;6175265;28;20198;-66
2023/08/30 17:22:15;;;;;;;3.63;2.20;;;;;;;;;;6162088;28;20227;-67
2023/08/30 17:25:18;;;;;;;2.93;2.00;;;;;;;;;;6175459;28;20189;-70
2023/08/30 17:28:20;;;;;;;3.80;1.87;;;;;;;;;;6178143;28;20184;-66
2023/08/30 17:31:22;;;;;;;3.37;2.53;;;;;;;;;;6178505;28;20193;-65
2023/08/30 17:34:24;;;;;;;7.80;3.23;;;;;;;;;;6161756;28;20225;-64
2023/08/30 17:37:25;;;;;;;7.47;2.60;;;;;;;;;;6167058;28;20577;-65
2023/08/30 17:40:34;;;;;;;6.23;2.30;;;;;;;;;;6175504;28;20212;-66
2023/08/30 17:43:36;;;;;;;4.07;2.57;;;;;;;;;;6177255;28;20189;-66
2023/08/30 17:46:37;;;;;;;3.43;2.03;;;;;;;;;;6178065;28;20188;-65
2023/08/30 17:49:40;;;;;;;5.37;2.90;;;;;;;;;;6166813;28;20181;-66
2023/08/30 17:52:42;;;;;;;2.23;1.87;;;;;;;;;;6162621;28;20201;-67
2023/08/30 17:55:43;;;;;;;2.90;2.37;;;;;;;;;;6168804;28;20185;-65
2023/08/30 17:58:45;;;;;;;5.43;2.60;;;;;;;;;;6160906;28;20193;-66
2023/08/30 18:01:47;;;;;;;3.07;2.53;;;;;;;;;;6175246;28;20229;-67
2023/08/30 18:04:50;;;;;;;4.53;2.37;;;;;;;;;;6165483;28;20197;-66
2023/08/30 18:07:55;;;;;;;3.07;2.07;;;;;;;;;;6171655;28;20283;-67
2023/08/30 18:10:56;;;;;;;2.63;2.30;;;;;;;;;;6169099;28;20229;-66